createdAt,value
2023-02-22T00:06:25.176Z,17.83
2023-02-22T00:08:53.406Z,20.80
2023-02-22T00:11:20.682Z,20.35
2023-02-22T00:13:47.691Z,17.33
2023-02-22T00:16:20.673Z,18.85
2023-02-22T00:18:48.087Z,20.38
2023-02-22T00:21:16.629Z,17.60
2023-02-22T00:23:48.118Z,17.42
2023-02-22T00:26:20.063Z,19.73
2023-02-22T00:28:48.918Z,16.83
2023-02-22T00:31:15.837Z,18.08
2023-02-22T00:33:42.939Z,17.30
2023-02-22T00:36:11.287Z,17.85
2023-02-22T00:38:37.972Z,17.75
2023-02-22T00:41:05.042Z,18.20
2023-02-22T00:43:31.633Z,18.92
2023-02-22T00:45:58.571Z,18.73
2023-02-22T00:48:25.317Z,19.40
2023-02-22T00:50:55.312Z,18.40
2023-02-22T00:53:23.679Z,19.02
2023-02-22T00:55:50.600Z,17.73
2023-02-22T00:58:17.355Z,19.17
2023-02-22T01:00:44.314Z,19.23
2023-02-22T01:03:13.146Z,18.30
2023-02-22T01:05:39.871Z,18.17
2023-02-22T01:08:07.957Z,18.17
2023-02-22T01:10:35.204Z,18.63
2023-02-22T01:13:04.902Z,17.38
2023-02-22T01:15:31.708Z,18.10
2023-02-22T01:17:59.612Z,18.67
2023-02-22T01:20:27.239Z,17.30
2023-02-22T01:22:55.701Z,16.98
2023-02-22T01:27:51.754Z,16.02
2023-02-22T01:30:24.332Z,17.45
2023-02-22T01:32:51.249Z,16.70
2023-02-22T01:35:20.806Z,17.50
2023-02-22T01:37:47.393Z,16.95
2023-02-22T01:40:23.414Z,17.02
2023-02-22T01:42:55.039Z,16.65
2023-02-22T01:45:30.686Z,18.73
2023-02-22T01:48:05.311Z,16.52
2023-02-22T01:50:37.244Z,16.40
2023-02-22T01:53:04.682Z,17.60
2023-02-22T01:55:32.338Z,17.45
2023-02-22T01:57:58.971Z,15.90
2023-02-22T02:00:27.693Z,16.33
2023-02-22T02:02:59.371Z,17.70
2023-02-22T02:05:27.368Z,16.33
2023-02-22T02:07:54.257Z,16.25
2023-02-22T02:10:21.627Z,16.45
2023-02-22T02:12:50.460Z,17.00
2023-02-22T02:15:18.140Z,16.48
2023-02-22T02:17:44.829Z,15.77
2023-02-22T02:20:27.926Z,15.45
2023-02-22T02:23:17.336Z,15.90
2023-02-22T02:26:16.537Z,15.45
2023-02-22T02:29:01.517Z,14.38
2023-02-22T02:31:57.913Z,14.23
2023-02-22T02:34:49.677Z,14.40
2023-02-22T02:37:45.757Z,16.80
2023-02-22T02:40:18.385Z,15.20
2023-02-22T02:42:53.866Z,15.85
2023-02-22T02:45:33.115Z,15.98
2023-02-22T02:48:01.622Z,16.38
2023-02-22T02:50:46.168Z,16.33
2023-02-22T02:53:14.237Z,16.35
2023-02-22T02:55:40.805Z,16.27
2023-02-22T02:58:08.024Z,16.15
2023-02-22T03:00:39.483Z,15.68
2023-02-22T03:03:06.379Z,15.43
2023-02-22T03:05:59.586Z,15.60
2023-02-22T03:08:41.595Z,14.40
2023-02-22T03:11:15.406Z,15.45
2023-02-22T03:14:20.456Z,15.63
2023-02-22T03:16:53.205Z,14.65
2023-02-22T03:19:58.965Z,14.30
2023-02-22T03:22:32.577Z,15.65
2023-02-22T03:25:07.128Z,14.18
2023-02-22T03:27:55.618Z,12.75
2023-02-22T03:30:24.088Z,14.68
2023-02-22T03:35:24.357Z,14.43
2023-02-22T03:37:55.856Z,14.05
2023-02-22T03:40:31.663Z,14.40
2023-02-22T03:43:07.748Z,13.65
2023-02-22T03:45:34.915Z,14.90
2023-02-22T03:48:31.704Z,13.25
2023-02-22T03:50:58.572Z,12.98
2023-02-22T03:53:25.422Z,14.25
2023-02-22T03:55:53.148Z,13.23
2023-02-22T03:58:21.978Z,12.93
2023-02-22T04:00:53.075Z,12.50
2023-02-22T04:03:21.332Z,14.18
2023-02-22T04:05:48.438Z,12.93
2023-02-22T04:08:15.748Z,12.27
2023-02-22T04:10:42.573Z,12.40
2023-02-22T04:13:10.317Z,13.02
2023-02-22T04:15:37.025Z,13.93
2023-02-22T04:18:03.862Z,14.13
2023-02-22T04:20:31.769Z,13.68
2023-02-22T04:22:58.418Z,13.50
2023-02-22T04:25:25.157Z,12.77
2023-02-22T04:27:52.083Z,14.57
2023-02-22T04:30:19.314Z,13.05
2023-02-22T04:32:46.258Z,13.23
2023-02-22T04:35:13.041Z,11.77
2023-02-22T04:37:39.603Z,11.65
2023-02-22T04:40:11.574Z,12.02
2023-02-22T04:42:38.820Z,11.95
2023-02-22T04:45:08.101Z,12.55
2023-02-22T04:47:35.997Z,12.20
2023-02-22T04:50:03.458Z,12.15
2023-02-22T04:52:30.058Z,12.82
2023-02-22T04:54:56.703Z,12.02
2023-02-22T04:57:23.334Z,12.30
2023-02-22T04:59:51.202Z,12.23
2023-02-22T05:02:18.542Z,14.20
2023-02-22T05:04:45.471Z,12.88
2023-02-22T05:07:12.310Z,13.25
2023-02-22T05:09:38.869Z,11.88
2023-02-22T05:12:05.667Z,13.98
2023-02-22T05:14:32.788Z,13.45
2023-02-22T05:16:59.795Z,13.13
2023-02-22T05:19:26.417Z,12.65
2023-02-22T05:21:53.069Z,13.52
2023-02-22T05:24:19.788Z,13.20
2023-02-22T05:26:46.508Z,13.80
2023-02-22T05:29:13.694Z,13.07
2023-02-22T05:31:41.954Z,13.38
2023-02-22T05:34:08.795Z,15.60
2023-02-22T05:36:35.406Z,14.23
2023-02-22T05:39:01.997Z,15.77
2023-02-22T05:41:28.953Z,14.95
2023-02-22T05:43:55.520Z,14.43
2023-02-22T05:46:22.127Z,14.75
2023-02-22T05:48:48.785Z,15.40
2023-02-22T05:51:15.755Z,14.93
2023-02-22T05:53:42.744Z,14.63
2023-02-22T05:56:09.377Z,14.32
2023-02-22T05:58:35.949Z,15.88
2023-02-22T06:01:03.410Z,16.75
2023-02-22T06:03:30.130Z,14.03
2023-02-22T06:05:58.036Z,15.10
2023-02-22T06:08:24.665Z,14.82
2023-02-22T06:10:51.215Z,16.15
2023-02-22T06:13:17.874Z,15.02
2023-02-22T06:15:44.474Z,16.92
2023-02-22T06:18:11.158Z,14.15
2023-02-22T06:20:37.774Z,17.35
2023-02-22T06:23:04.448Z,16.23
2023-02-22T06:25:31.772Z,14.50
2023-02-22T06:27:59.644Z,15.55
2023-02-22T06:30:27.469Z,16.10
2023-02-22T06:32:54.213Z,14.48
2023-02-22T06:35:21.537Z,15.25
2023-02-22T06:37:48.312Z,12.48
2023-02-22T06:40:15.998Z,14.07
2023-02-22T06:42:42.605Z,13.43
2023-02-22T06:45:10.116Z,13.23
2023-02-22T06:47:41.364Z,15.45
2023-02-22T06:50:24.593Z,16.83
2023-02-22T06:52:51.332Z,15.65
2023-02-22T06:55:23.304Z,16.50
2023-02-22T06:57:49.969Z,13.63
2023-02-22T07:00:18.890Z,15.68
2023-02-22T07:02:46.710Z,14.65
2023-02-22T07:05:13.473Z,14.63
2023-02-22T07:07:40.176Z,15.85
2023-02-22T07:10:08.317Z,14.18
2023-02-22T07:12:35.382Z,16.40
2023-02-22T07:15:02.103Z,13.88
2023-02-22T07:17:28.702Z,14.50
2023-02-22T07:19:55.294Z,13.93
2023-02-22T07:22:21.897Z,13.82
2023-02-22T07:24:48.437Z,12.30
2023-02-22T07:27:15.049Z,12.27
2023-02-22T07:29:44.666Z,13.55
2023-02-22T07:32:11.390Z,13.13
2023-02-22T07:34:38.159Z,14.57
2023-02-22T07:37:04.695Z,14.73
2023-02-22T07:39:31.474Z,14.43
2023-02-22T07:41:59.257Z,15.65
2023-02-22T07:44:26.088Z,13.90
2023-02-22T07:46:52.717Z,15.98
2023-02-22T07:49:19.487Z,14.57
2023-02-22T07:51:46.132Z,14.35
2023-02-22T07:54:12.695Z,15.07
2023-02-22T07:56:45.202Z,15.75
2023-02-22T07:59:11.785Z,16.42
2023-02-22T08:01:38.398Z,15.88
2023-02-22T08:04:05.480Z,16.35
2023-02-22T08:06:32.170Z,16.42
2023-02-22T08:08:58.806Z,15.15
2023-02-22T08:11:26.084Z,16.10
2023-02-22T08:13:52.733Z,15.60
2023-02-22T08:16:19.308Z,15.48
2023-02-22T08:18:46.296Z,16.83
2023-02-22T08:21:13.290Z,17.70
2023-02-22T08:23:40.427Z,14.57
2023-02-22T08:26:09.617Z,16.08
2023-02-22T08:28:36.921Z,15.13
2023-02-22T08:31:04.152Z,15.13
2023-02-22T08:33:31.180Z,16.70
2023-02-22T08:35:58.158Z,14.52
2023-02-22T08:38:27.989Z,15.00
2023-02-22T08:40:55.195Z,15.00
2023-02-22T08:43:22.650Z,15.55
2023-02-22T08:45:50.316Z,15.57
2023-02-22T08:48:18.048Z,16.17
2023-02-22T08:50:44.760Z,16.77
2023-02-22T08:53:13.715Z,17.23
2023-02-22T08:55:41.818Z,15.52
2023-02-22T08:58:12.448Z,15.05
2023-02-22T09:00:40.646Z,14.10
2023-02-22T09:03:10.703Z,14.68
2023-02-22T09:05:37.452Z,14.05
2023-02-22T09:08:04.557Z,14.40
2023-02-22T09:10:33.149Z,15.68
2023-02-22T09:15:28.733Z,14.80
2023-02-22T09:17:55.847Z,15.77
2023-02-22T09:20:23.535Z,15.65
2023-02-22T09:22:50.472Z,14.00
2023-02-22T09:25:18.218Z,16.00
2023-02-22T09:27:47.990Z,15.38
2023-02-22T09:30:34.894Z,15.68
2023-02-22T09:33:21.355Z,14.55
2023-02-22T09:35:49.913Z,15.18
2023-02-22T09:40:47.962Z,15.23
2023-02-22T09:43:33.814Z,14.98
2023-02-22T09:46:25.247Z,14.27
2023-02-22T09:49:05.315Z,16.05
2023-02-22T09:52:02.803Z,15.82
2023-02-22T09:54:36.164Z,17.10
2023-02-22T09:57:05.708Z,15.85
2023-02-22T09:59:37.527Z,15.27
2023-02-22T10:02:14.402Z,15.73
2023-02-22T10:04:52.838Z,16.35
2023-02-22T10:10:06.614Z,16.38
2023-02-22T10:12:42.670Z,14.43
2023-02-22T10:15:16.107Z,15.68
2023-02-22T10:18:00.899Z,14.80
2023-02-22T10:20:49.843Z,18.30
2023-02-22T10:23:31.420Z,14.70
2023-02-22T10:26:11.040Z,16.00
2023-02-22T10:28:42.362Z,15.60
2023-02-22T10:31:12.647Z,15.45
2023-02-22T10:33:47.043Z,17.08
2023-02-22T10:36:20.138Z,14.60
2023-02-22T10:38:55.229Z,15.93
2023-02-22T10:41:36.652Z,15.65
2023-02-22T10:44:03.316Z,14.98
2023-02-22T10:46:30.977Z,15.65
2023-02-22T10:49:02.755Z,14.73
2023-02-22T10:51:30.480Z,14.63
2023-02-22T10:54:21.474Z,14.27
2023-02-22T10:56:49.900Z,14.45
2023-02-22T10:59:37.531Z,15.68
2023-02-22T11:02:20.950Z,14.43
2023-02-22T11:04:52.795Z,13.40
2023-02-22T11:07:24.335Z,12.27
2023-02-22T11:09:53.731Z,13.82
2023-02-22T11:12:43.735Z,13.32
2023-02-22T11:15:16.457Z,12.00
2023-02-22T11:17:44.249Z,12.15
2023-02-22T11:20:25.534Z,13.60
2023-02-22T11:22:54.856Z,13.77
2023-02-22T11:25:26.684Z,11.95
2023-02-22T11:27:54.141Z,11.80
2023-02-22T11:30:29.324Z,12.15
2023-02-22T11:32:58.818Z,12.80
2023-02-22T11:35:28.463Z,11.32
2023-02-22T11:38:11.941Z,11.60
2023-02-22T11:40:40.209Z,11.93
2023-02-22T11:43:14.171Z,11.65
2023-02-22T11:46:02.182Z,10.88
2023-02-22T11:48:31.257Z,11.13
2023-02-22T11:51:18.011Z,10.52
2023-02-22T11:54:00.330Z,10.77
2023-02-22T11:56:38.078Z,10.55
2023-02-22T11:59:11.764Z,10.95
2023-02-22T12:01:51.374Z,11.30
2023-02-22T12:04:25.072Z,10.57
2023-02-22T12:07:00.338Z,10.77
2023-02-22T12:09:48.688Z,10.52
2023-02-22T12:14:55.518Z,9.48
2023-02-22T12:18:00.828Z,9.82
2023-02-22T12:20:32.027Z,10.15
2023-02-22T12:23:03.487Z,10.35
2023-02-22T12:25:34.346Z,10.25
2023-02-22T12:28:25.017Z,9.35
2023-02-22T12:31:18.515Z,9.00
2023-02-22T12:33:55.239Z,9.57
2023-02-22T12:36:25.872Z,10.85
2023-02-22T12:39:07.028Z,9.43
2023-02-22T12:41:40.709Z,9.40
2023-02-22T12:44:11.402Z,9.90
2023-02-22T12:46:41.797Z,9.25
2023-02-22T12:49:37.964Z,9.05
2023-02-22T12:52:21.183Z,8.27
2023-02-22T12:55:19.652Z,8.43
2023-02-22T12:57:57.298Z,8.48
2023-02-22T13:01:07.377Z,7.88
2023-02-22T13:03:42.216Z,9.57
2023-02-22T13:06:20.928Z,9.20
2023-02-22T13:09:01.945Z,9.80
2023-02-22T13:11:34.317Z,9.55
2023-02-22T13:14:03.646Z,9.73
2023-02-22T13:16:42.238Z,10.85
2023-02-22T13:19:30.356Z,8.80
2023-02-22T13:22:06.795Z,9.00
2023-02-22T13:24:56.997Z,8.80
2023-02-22T13:27:28.944Z,8.95
2023-02-22T13:29:59.626Z,8.48
2023-02-22T13:32:29.387Z,9.18
2023-02-22T13:35:02.182Z,8.77
2023-02-22T13:37:50.525Z,8.77
2023-02-22T13:43:04.006Z,7.63
2023-02-22T13:45:48.639Z,8.07
2023-02-22T13:48:34.691Z,7.80
2023-02-22T13:51:37.826Z,8.18
2023-02-22T13:54:23.213Z,7.93
2023-02-22T13:56:52.532Z,8.00
2023-02-22T13:59:31.438Z,7.45
2023-02-22T14:01:59.430Z,7.47
2023-02-22T14:04:29.201Z,8.32
2023-02-22T14:07:00.560Z,8.05
2023-02-22T14:09:49.892Z,7.28
2023-02-22T14:12:33.539Z,7.38
2023-02-22T14:15:28.122Z,7.18
2023-02-22T14:18:01.085Z,8.40
2023-02-22T14:20:36.921Z,7.68
2023-02-22T14:23:40.410Z,7.32
2023-02-22T14:26:23.684Z,8.05
2023-02-22T14:29:15.655Z,7.50
2023-02-22T14:31:45.100Z,7.22
2023-02-22T14:34:49.488Z,6.88
2023-02-22T14:37:27.431Z,7.82
2023-02-22T14:40:18.487Z,7.35
2023-02-22T14:42:50.943Z,7.32
2023-02-22T14:45:29.286Z,7.03
2023-02-22T14:48:29.479Z,6.57
2023-02-22T14:51:08.804Z,6.70
2023-02-22T14:53:51.873Z,7.18
2023-02-22T14:56:44.153Z,6.65
2023-02-22T14:59:17.844Z,6.22
2023-02-22T15:01:58.678Z,5.90
2023-02-22T15:04:32.601Z,7.03
2023-02-22T15:07:01.268Z,5.90
2023-02-22T15:12:04.725Z,6.13
2023-02-22T15:14:37.694Z,6.20
2023-02-22T15:17:10.517Z,5.55
2023-02-22T15:19:39.677Z,5.65
2023-02-22T15:22:09.236Z,5.93
2023-02-22T15:24:37.896Z,6.03
2023-02-22T15:27:06.699Z,5.35
2023-02-22T15:29:37.739Z,5.88
2023-02-22T15:32:20.056Z,6.30
2023-02-22T15:34:46.745Z,5.95
2023-02-22T15:37:25.368Z,6.22
2023-02-22T15:39:59.467Z,5.75
2023-02-22T15:42:29.759Z,6.47
2023-02-22T15:44:56.902Z,6.60
2023-02-22T15:47:25.355Z,5.78
2023-02-22T15:50:25.937Z,5.93
2023-02-22T15:53:22.641Z,5.70
2023-02-22T15:55:55.548Z,5.78
2023-02-22T15:58:23.947Z,5.32
2023-02-22T16:01:14.179Z,5.70
2023-02-22T16:03:48.253Z,6.07
2023-02-22T16:06:28.981Z,6.25
2023-02-22T16:08:56.972Z,6.13
2023-02-22T16:11:30.589Z,5.47
2023-02-22T16:14:00.615Z,7.00
2023-02-22T16:16:31.304Z,6.82
2023-02-22T16:19:28.834Z,7.07
2023-02-22T16:21:58.440Z,6.72
2023-02-22T16:24:36.021Z,6.22
2023-02-22T16:27:23.812Z,5.80
2023-02-22T16:30:23.348Z,6.38
2023-02-22T16:32:52.121Z,6.85
2023-02-22T16:35:18.860Z,7.45
2023-02-22T16:37:55.156Z,7.75
2023-02-22T16:40:26.916Z,7.10
2023-02-22T16:42:53.483Z,7.70
2023-02-22T16:45:21.324Z,7.95
2023-02-22T16:47:51.242Z,8.00
2023-02-22T16:50:17.839Z,7.72
2023-02-22T16:52:44.393Z,7.13
2023-02-22T16:55:13.852Z,13.43
2023-02-22T16:57:40.753Z,11.38
2023-02-22T17:00:13.202Z,17.20
2023-02-22T17:02:40.105Z,27.70
2023-02-22T17:05:08.007Z,28.77
2023-02-22T17:07:34.698Z,26.73
2023-02-22T17:10:01.274Z,20.00
2023-02-22T17:12:29.337Z,15.38
2023-02-22T17:14:56.201Z,12.02
2023-02-22T17:17:22.846Z,9.85
2023-02-22T17:19:49.593Z,8.40
2023-02-22T17:22:20.685Z,7.88
2023-02-22T17:24:47.689Z,8.43
2023-02-22T17:27:14.571Z,7.75
2023-02-22T17:29:42.132Z,7.75
2023-02-22T17:32:09.100Z,9.02
2023-02-22T17:34:36.123Z,9.80
2023-02-22T17:37:04.833Z,10.48
2023-02-22T17:39:31.435Z,10.35
2023-02-22T17:41:58.147Z,10.85
2023-02-22T17:44:26.086Z,10.68
2023-02-22T17:46:53.409Z,10.40
2023-02-22T17:49:20.054Z,11.23
2023-02-22T17:51:49.607Z,10.40
2023-02-22T17:54:17.738Z,10.63
2023-02-22T17:56:44.492Z,11.90
2023-02-22T17:59:11.175Z,11.60
2023-02-22T18:01:38.429Z,10.77
2023-02-22T18:04:05.831Z,11.70
2023-02-22T18:06:32.881Z,11.80
2023-02-22T18:09:00.562Z,13.50
2023-02-22T18:11:28.351Z,13.97
2023-02-22T18:13:56.544Z,12.75
2023-02-22T18:16:25.689Z,13.60
2023-02-22T18:18:53.544Z,15.63
2023-02-22T18:21:20.325Z,16.10
2023-02-22T18:23:47.020Z,17.30
2023-02-22T18:26:16.192Z,17.40
2023-02-22T18:28:43.114Z,17.20
2023-02-22T18:31:14.579Z,17.17
2023-02-22T18:33:46.697Z,16.80
2023-02-22T18:36:14.558Z,14.48
2023-02-22T18:38:43.171Z,13.77
2023-02-22T18:41:15.310Z,14.30
2023-02-22T18:43:42.353Z,14.00
2023-02-22T18:46:19.762Z,14.02
2023-02-22T18:48:47.933Z,13.65
2023-02-22T18:51:17.156Z,12.48
2023-02-22T18:53:47.094Z,13.13
2023-02-22T18:56:21.736Z,13.00
2023-02-22T18:58:53.379Z,12.20
2023-02-22T19:01:20.623Z,11.23
2023-02-22T19:03:47.372Z,12.25
2023-02-22T19:06:15.203Z,12.40
2023-02-22T19:08:43.098Z,13.27
2023-02-22T19:11:18.114Z,13.55
2023-02-22T19:13:50.275Z,11.98
2023-02-22T19:16:19.923Z,11.75
2023-02-22T19:18:47.752Z,12.45
2023-02-22T19:21:14.742Z,12.87
2023-02-22T19:23:48.629Z,12.02
2023-02-22T19:26:18.831Z,12.30
2023-02-22T19:28:46.904Z,12.25
2023-02-22T19:31:31.037Z,12.18
2023-02-22T19:34:05.756Z,12.27
2023-02-22T19:36:32.797Z,13.48
2023-02-22T19:39:01.701Z,39.33
2023-02-22T19:41:29.081Z,18.15
2023-02-22T19:43:55.948Z,14.57
2023-02-22T19:46:24.761Z,12.95
2023-02-22T19:48:52.502Z,12.73
2023-02-22T19:51:25.673Z,12.25
2023-02-22T19:53:53.377Z,11.68
2023-02-22T19:56:27.118Z,11.83
2023-02-22T19:58:56.257Z,12.52
2023-02-22T20:01:25.678Z,13.15
2023-02-22T20:03:54.651Z,12.77
2023-02-22T20:06:23.044Z,11.95
2023-02-22T20:08:51.125Z,11.73
2023-02-22T20:11:18.238Z,11.52
2023-02-22T20:13:44.927Z,12.88
2023-02-22T20:16:15.679Z,11.73
2023-02-22T20:18:46.456Z,12.07
2023-02-22T20:21:19.715Z,12.45
2023-02-22T20:23:46.540Z,12.65
2023-02-22T20:26:19.010Z,12.27
2023-02-22T20:28:47.203Z,13.63
2023-02-22T20:31:14.550Z,12.43
2023-02-22T20:33:42.160Z,12.98
2023-02-22T20:36:13.807Z,13.90
2023-02-22T20:38:40.575Z,12.68
2023-02-22T20:41:14.431Z,13.68
2023-02-22T20:43:41.042Z,14.27
2023-02-22T20:46:08.208Z,15.48
2023-02-22T20:48:35.148Z,13.20
2023-02-22T20:51:09.518Z,14.25
2023-02-22T20:53:36.694Z,14.18
2023-02-22T20:56:03.485Z,12.93
2023-02-22T20:58:30.173Z,12.23
2023-02-22T21:00:56.776Z,14.23
2023-02-22T21:03:23.371Z,13.48
2023-02-22T21:05:49.940Z,14.10
2023-02-22T21:08:16.636Z,12.52
2023-02-22T21:10:46.889Z,13.20
2023-02-22T21:13:13.977Z,13.52
2023-02-22T21:15:43.904Z,12.50
2023-02-22T21:18:11.271Z,14.07
2023-02-22T21:20:41.144Z,14.85
2023-02-22T21:23:08.434Z,14.85
2023-02-22T21:25:35.410Z,14.77
2023-02-22T21:28:01.989Z,14.77
2023-02-22T21:30:28.596Z,16.23
2023-02-22T21:32:55.404Z,14.85
2023-02-22T21:35:25.630Z,13.13
2023-02-22T21:37:52.631Z,12.15
2023-02-22T21:40:19.309Z,12.15
2023-02-22T21:42:48.156Z,11.18
2023-02-22T21:45:23.838Z,10.98
2023-02-22T21:47:53.025Z,12.50
2023-02-22T21:50:19.814Z,10.90
2023-02-22T21:52:47.791Z,11.23
2023-02-22T21:55:15.741Z,11.10
2023-02-22T21:57:42.980Z,12.25
2023-02-22T22:00:17.379Z,11.60
2023-02-22T22:02:48.111Z,10.55
2023-02-22T22:05:26.316Z,12.02
2023-02-22T22:07:52.906Z,12.40
2023-02-22T22:10:24.554Z,11.20
2023-02-22T22:12:51.174Z,13.75
2023-02-22T22:15:17.837Z,14.13
2023-02-22T22:17:45.118Z,11.07
2023-02-22T22:20:15.980Z,11.23
2023-02-22T22:22:45.440Z,11.15
2023-02-22T22:25:12.911Z,10.57
2023-02-22T22:27:40.175Z,10.85
2023-02-22T22:30:08.071Z,10.13
2023-02-22T22:32:35.031Z,11.88
2023-02-22T22:35:01.688Z,12.20
2023-02-22T22:37:29.034Z,12.68
2023-02-22T22:39:55.807Z,12.00
2023-02-22T22:42:23.801Z,12.07
2023-02-22T22:44:50.748Z,11.80
2023-02-22T22:47:18.656Z,14.10
2023-02-22T22:49:46.146Z,15.25
2023-02-22T22:52:18.147Z,14.65
2023-02-22T22:54:44.805Z,16.58
2023-02-22T22:57:11.542Z,18.13
2023-02-22T22:59:39.677Z,17.55
2023-02-22T23:02:10.768Z,19.02
2023-02-22T23:04:38.077Z,20.48
2023-02-22T23:07:06.471Z,18.88
2023-02-22T23:09:35.029Z,17.75
2023-02-22T23:14:43.962Z,16.33
2023-02-22T23:17:16.268Z,14.93
2023-02-22T23:19:45.052Z,15.82
2023-02-22T23:22:14.410Z,20.08
2023-02-22T23:24:41.274Z,19.60
2023-02-22T23:27:07.984Z,19.55
2023-02-22T23:29:37.997Z,21.90
2023-02-22T23:32:06.213Z,26.95
2023-02-22T23:34:33.296Z,25.65
2023-02-22T23:36:59.908Z,24.05
2023-02-22T23:39:26.583Z,25.50
2023-02-22T23:41:55.287Z,24.15
2023-02-22T23:44:22.527Z,22.45
2023-02-22T23:46:54.593Z,23.58
2023-02-22T23:49:22.799Z,22.67
2023-02-22T23:51:49.584Z,22.05
2023-02-22T23:54:21.046Z,25.38
2023-02-22T23:56:56.532Z,26.95
2023-02-22T23:59:25.365Z,26.83
